Time;durP1;ratioP1;P1;durP2;ratioP2;P2;SDS_P1;SDS_P2;PMS_P1;PMS_P2;Temp;Humidity;BMP_temperature;BMP_pressure;BME280_temperature;BME280_humidity;BME280_pressure;Samples;Min_cycle;Max_cycle;Signal;HPM_P1;HPM_P2
2021/07/15 00:01:18;;;;;;;7.97;7.28;;;19.60;92.20;;;;;;5055140;28;20465;-78
2021/07/15 00:03:44;;;;;;;6.95;6.35;;;19.60;92.20;;;;;;5055332;28;20427;-77
2021/07/15 00:06:10;;;;;;;6.93;6.32;;;19.60;92.20;;;;;;5055240;28;20063;-78
2021/07/15 00:08:36;;;;;;;7.07;6.50;;;19.60;92.20;;;;;;5055219;28;20062;-78
2021/07/15 00:11:08;;;;;;;6.70;6.10;;;19.60;92.20;;;;;;5054919;28;20021;-77
2021/07/15 00:13:34;;;;;;;6.88;6.25;;;19.50;92.20;;;;;;5055176;28;20024;-78
2021/07/15 00:16:01;;;;;;;6.18;5.68;;;19.50;92.20;;;;;;5072821;28;20029;-79
2021/07/15 00:18:30;;;;;;;6.25;5.68;;;19.50;92.20;;;;;;5054571;28;20487;-79
2021/07/15 00:20:57;;;;;;;6.20;5.70;;;19.50;92.30;;;;;;5072516;28;20020;-78
2021/07/15 00:23:23;;;;;;;5.50;5.03;;;19.50;92.30;;;;;;5072515;28;20032;-78
2021/07/15 00:25:49;;;;;;;5.57;5.07;;;19.50;92.30;;;;;;5054683;28;20021;-78
2021/07/15 00:28:16;;;;;;;5.70;5.20;;;19.50;92.30;;;;;;5072651;28;20130;-77
2021/07/15 00:30:42;;;;;;;5.68;5.20;;;19.40;92.30;;;;;;5054379;28;20043;-78
2021/07/15 00:33:08;;;;;;;5.28;4.78;;;19.40;92.30;;;;;;5054584;28;20142;-79
2021/07/15 00:35:36;;;;;;;5.65;5.15;;;19.40;92.50;;;;;;5072488;28;20388;-78
2021/07/15 00:38:03;;;;;;;5.32;4.85;;;19.40;92.30;;;;;;5054499;28;20013;-78
2021/07/15 00:40:29;;;;;;;5.50;5.07;;;19.40;92.40;;;;;;5054504;28;20023;-78
2021/07/15 00:42:55;;;;;;;5.38;4.88;;;19.40;92.40;;;;;;5072568;28;20024;-78
2021/07/15 00:45:21;;;;;;;5.95;5.40;;;19.30;92.40;;;;;;5054477;28;20025;-78
2021/07/15 00:47:48;;;;;;;5.80;5.22;;;19.40;92.40;;;;;;5054397;28;20032;-78
2021/07/15 00:50:16;;;;;;;6.03;5.53;;;19.40;92.40;;;;;;5054483;28;20472;-78
2021/07/15 00:52:43;;;;;;;6.13;5.53;;;19.30;92.40;;;;;;5072294;28;20024;-78
2021/07/15 00:55:15;;;;;;;7.05;6.35;;;19.40;92.40;;;;;;5073611;28;20372;-79
2021/07/15 00:57:41;;;;;;;6.57;5.93;;;19.30;92.40;;;;;;5058336;28;20032;-78
2021/07/15 01:00:09;;;;;;;7.40;6.70;;;19.30;92.40;;;;;;5076480;28;20024;-79
2021/07/15 01:02:35;;;;;;;8.68;7.78;;;19.30;92.40;;;;;;5058258;28;20020;-78
2021/07/15 01:05:08;;;;;;;7.80;7.00;;;19.30;92.50;;;;;;5076405;28;20066;-76
2021/07/15 01:07:34;;;;;;;7.53;6.82;;;19.30;92.50;;;;;;5058333;28;20510;-77
2021/07/15 01:10:03;;;;;;;8.13;7.43;;;19.30;92.50;;;;;;5058197;28;20032;-78
2021/07/15 01:12:49;;;;;;;8.15;7.35;;;19.20;92.50;;;;;;5058257;28;20036;-78
2021/07/15 01:15:21;;;;;;;9.23;8.25;;;19.30;92.50;;;;;;5076018;28;20028;-78
2021/07/15 01:18:06;;;;;;;7.97;7.18;;;19.20;92.50;;;;;;5075887;28;20024;-78
2021/07/15 01:20:59;;;;;;;7.68;6.97;;;19.20;92.50;;;;;;5057935;28;20509;-77
2021/07/15 01:24:02;;;;;;;7.03;6.32;;;19.20;92.50;;;;;;5057928;28;20024;-78
2021/07/15 01:26:56;;;;;;;7.53;6.82;;;19.20;92.50;;;;;;5057878;28;20059;-78
2021/07/15 01:29:58;;;;;;;6.65;6.03;;;19.10;92.50;;;;;;5057680;28;20047;-78
2021/07/15 01:32:32;;;;;;;7.32;6.20;;;19.10;92.50;;;;;;5075798;28;20043;-77
2021/07/15 01:35:02;;;;;;;7.30;6.38;;;19.20;92.60;;;;;;5075786;28;20104;-77
2021/07/15 01:37:31;;;;;;;6.80;6.20;;;19.20;92.60;;;;;;5057799;28;20025;-76
2021/07/15 01:39:58;;;;;;;6.50;5.90;;;19.20;92.50;;;;;;5075798;28;20021;-77
2021/07/15 01:42:25;;;;;;;5.97;5.40;;;19.10;92.50;;;;;;5075814;28;20017;-77
2021/07/15 01:44:53;;;;;;;5.90;5.30;;;19.10;92.60;;;;;;5075668;28;20029;-78
2021/07/15 01:47:20;;;;;;;5.88;5.38;;;19.10;92.60;;;;;;5057632;28;20075;-77
2021/07/15 01:49:46;;;;;;;6.55;5.85;;;19.10;92.60;;;;;;5075713;28;20043;-78
2021/07/15 01:52:14;;;;;;;6.00;5.50;;;19.10;92.60;;;;;;5075324;28;20104;-78
2021/07/15 01:54:41;;;;;;;6.97;6.07;;;19.10;92.60;;;;;;5057289;28;20208;-78
2021/07/15 01:57:07;;;;;;;6.97;6.28;;;19.00;92.60;;;;;;5057582;28;20060;-78
2021/07/15 01:59:36;;;;;;;7.78;6.70;;;19.00;92.60;;;;;;5057308;28;20047;-77
2021/07/15 02:02:04;;;;;;;8.15;7.22;;;19.00;92.70;;;;;;5056963;28;20570;-77
2021/07/15 02:04:34;;;;;;;7.43;6.68;;;19.00;92.70;;;;;;5057256;28;20108;-78
2021/07/15 02:07:01;;;;;;;8.35;7.32;;;19.00;92.70;;;;;;5074982;28;20056;-77
2021/07/15 02:09:28;;;;;;;8.80;7.90;;;19.00;92.70;;;;;;5057085;28;20111;-77
2021/07/15 02:11:55;;;;;;;9.38;8.00;;;19.00;92.70;;;;;;5054265;28;20432;-77
2021/07/15 02:14:23;;;;;;;9.32;8.10;;;19.00;92.70;;;;;;5074919;28;20503;-77
2021/07/15 02:16:52;;;;;;;8.85;7.45;;;19.00;92.70;;;;;;5075172;28;20074;-78
2021/07/15 02:19:19;;;;;;;8.50;7.47;;;19.00;92.70;;;;;;5057148;28;20119;-78
2021/07/15 02:21:46;;;;;;;8.70;7.80;;;19.00;92.70;;;;;;5072357;28;20060;-78
2021/07/15 02:24:15;;;;;;;9.73;7.78;;;19.00;92.70;;;;;;5057478;28;20021;-78
2021/07/15 02:26:43;;;;;;;8.82;7.82;;;19.00;92.70;;;;;;5057256;28;20067;-78
2021/07/15 02:29:10;;;;;;;10.32;7.80;;;19.00;92.70;;;;;;5056946;28;20526;-77
2021/07/15 02:31:51;;;;;;;10.13;7.43;;;19.00;92.70;;;;;;5057145;28;20074;-78
2021/07/15 02:34:28;;;;;;;10.85;8.60;;;19.00;92.70;;;;;;5057002;28;20476;-78
2021/07/15 02:36:56;;;;;;;8.40;7.47;;;19.00;92.80;;;;;;5056955;28;20024;-77
2021/07/15 02:39:22;;;;;;;11.02;8.10;;;18.90;92.70;;;;;;5056857;28;20044;-77
2021/07/15 02:41:48;;;;;;;9.68;7.97;;;18.90;92.80;;;;;;5056893;28;20024;-78
2021/07/15 02:44:14;;;;;;;8.45;7.25;;;18.90;92.70;;;;;;5074651;28;20019;-78
2021/07/15 02:46:39;;;;;;;8.88;7.25;;;18.90;92.80;;;;;;5056693;28;20119;-78
2021/07/15 02:49:05;;;;;;;9.25;7.75;;;18.90;92.80;;;;;;5056842;28;20024;-77
2021/07/15 02:51:31;;;;;;;7.78;6.97;;;19.00;92.80;;;;;;5053762;28;20487;-77
2021/07/15 02:53:57;;;;;;;8.75;6.90;;;18.90;92.80;;;;;;5056642;28;20027;-77
2021/07/15 02:56:47;;;;;;;8.20;7.20;;;18.90;92.80;;;;;;5056426;28;20055;-78
2021/07/15 02:59:41;;;;;;;6.60;5.88;;;18.90;92.70;;;;;;5056898;28;20479;-77
2021/07/15 03:02:20;;;;;;;8.05;7.20;;;19.00;92.80;;;;;;5042280;28;20032;-77
2021/07/15 03:04:54;;;;;;;7.00;5.75;;;19.00;92.80;;;;;;5056454;28;20506;-77
2021/07/15 03:07:22;;;;;;;6.55;5.80;;;18.90;92.70;;;;;;5074245;28;20033;-77
2021/07/15 03:09:51;;;;;;;6.18;5.57;;;18.90;92.70;;;;;;5056306;28;20020;-78
2021/07/15 03:15:41;;;;;;;5.97;5.45;;;18.90;92.70;;;;;;5074458;28;20032;-78
2021/07/15 03:18:07;;;;;;;6.20;5.60;;;18.90;92.80;;;;;;5055670;28;20170;-78
2021/07/15 03:20:37;;;;;;;5.72;5.22;;;18.90;92.80;;;;;;5056002;28;20085;-78
2021/07/15 03:23:06;;;;;;;5.82;5.22;;;18.90;92.70;;;;;;5073896;28;20046;-78
2021/07/15 03:25:33;;;;;;;5.32;4.82;;;18.90;92.70;;;;;;5055984;28;20021;-78
2021/07/15 03:28:01;;;;;;;5.30;4.80;;;18.90;92.70;;;;;;5073858;28;20021;-78
2021/07/15 03:30:28;;;;;;;4.63;4.10;;;18.90;92.70;;;;;;5073909;28;20044;-78
2021/07/15 03:32:55;;;;;;;4.53;4.13;;;18.90;92.70;;;;;;5055948;28;20013;-77
2021/07/15 03:35:22;;;;;;;4.68;4.10;;;18.90;92.70;;;;;;5055852;28;20030;-78
2021/07/15 03:37:49;;;;;;;4.07;3.70;;;18.90;92.70;;;;;;5073610;28;20033;-78
2021/07/15 03:40:17;;;;;;;4.60;4.20;;;18.90;92.70;;;;;;5055718;28;20391;-78
2021/07/15 03:42:45;;;;;;;4.53;4.13;;;18.90;92.70;;;;;;5055746;28;20104;-78
2021/07/15 03:45:14;;;;;;;3.63;3.33;;;18.90;92.70;;;;;;5073560;28;20017;-78
2021/07/15 03:47:40;;;;;;;3.95;3.65;;;18.90;92.70;;;;;;5055560;28;20033;-77
2021/07/15 03:50:07;;;;;;;3.65;3.22;;;18.90;92.70;;;;;;5055462;28;20024;-77
2021/07/15 03:52:34;;;;;;;3.92;3.63;;;18.90;92.70;;;;;;5073359;28;20016;-78
2021/07/15 03:55:00;;;;;;;3.70;3.40;;;18.90;92.70;;;;;;5073374;28;20099;-78
2021/07/15 03:57:28;;;;;;;4.65;3.88;;;18.90;92.70;;;;;;5055275;28;20072;-77
2021/07/15 03:59:55;;;;;;;4.03;3.63;;;18.80;92.70;;;;;;5073054;28;20415;-78
2021/07/15 04:02:26;;;;;;;4.03;3.63;;;18.90;92.70;;;;;;5055259;28;20477;-78
2021/07/15 04:04:58;;;;;;;3.90;3.60;;;18.80;92.70;;;;;;5055295;28;20020;-78
2021/07/15 04:07:32;;;;;;;4.20;3.37;;;18.80;92.70;;;;;;5055346;28;20032;-78
2021/07/15 04:13:21;;;;;;;4.15;3.75;;;18.80;92.70;;;;;;5073577;28;20431;-78
2021/07/15 04:16:11;;;;;;;4.55;3.55;;;18.80;92.90;;;;;;5055032;28;20087;-78
2021/07/15 04:18:39;;;;;;;3.60;3.30;;;18.80;92.70;;;;;;5055107;28;20087;-78
2021/07/15 04:21:06;;;;;;;3.65;3.35;;;18.80;92.70;;;;;;5055039;28;20052;-78
2021/07/15 04:23:32;;;;;;;3.20;2.90;;;18.80;92.70;;;;;;5055049;28;20078;-78
2021/07/15 04:25:58;;;;;;;2.70;2.55;;;18.80;92.70;;;;;;5055347;28;20031;-78
2021/07/15 04:28:25;;;;;;;2.97;2.72;;;18.80;92.70;;;;;;5072920;28;20071;-78
2021/07/15 04:31:43;;;;;;;2.95;2.55;;;18.80;92.70;;;;;;5069338;28;20049;-79
2021/07/15 04:34:11;;;;;;;2.85;2.65;;;18.80;92.70;;;;;;5034939;28;20044;-79
2021/07/15 04:36:39;;;;;;;3.08;2.72;;;18.80;92.70;;;;;;5035179;28;20512;-78
2021/07/15 04:39:05;;;;;;;3.40;2.90;;;18.80;92.70;;;;;;5034787;28;20025;-78
2021/07/15 04:41:31;;;;;;;3.40;3.10;;;18.70;92.70;;;;;;5035132;28;20022;-78
2021/07/15 04:43:58;;;;;;;3.92;3.58;;;18.80;92.80;;;;;;5034948;28;20025;-78
2021/07/15 04:46:26;;;;;;;3.90;3.50;;;18.70;92.80;;;;;;5034980;28;20021;-78
2021/07/15 04:48:52;;;;;;;4.15;3.70;;;18.70;92.80;;;;;;5034973;28;20036;-78
2021/07/15 04:51:18;;;;;;;5.32;3.78;;;18.70;92.80;;;;;;5034923;28;20024;-78
2021/07/15 04:53:46;;;;;;;4.38;3.70;;;18.70;92.80;;;;;;5052795;28;20029;-78
2021/07/15 04:56:13;;;;;;;5.90;4.88;;;18.70;92.80;;;;;;5035128;28;20025;-78
2021/07/15 04:58:41;;;;;;;5.82;4.72;;;18.70;92.80;;;;;;5053234;28;20082;-78
2021/07/15 05:01:08;;;;;;;6.63;5.32;;;18.70;92.90;;;;;;5034734;28;20083;-78
2021/07/15 05:03:36;;;;;;;6.72;5.30;;;18.70;92.90;;;;;;5034795;28;20543;-78
2021/07/15 05:06:04;;;;;;;10.15;5.80;;;18.70;92.90;;;;;;5034602;28;20032;-78
2021/07/15 05:08:31;;;;;;;7.55;5.97;;;18.70;92.90;;;;;;5052643;28;20174;-79
2021/07/15 05:10:58;;;;;;;6.07;5.38;;;18.70;92.90;;;;;;5034751;28;20401;-78
2021/07/15 05:13:24;;;;;;;6.35;5.30;;;18.70;92.90;;;;;;5052488;28;20037;-78
2021/07/15 05:15:51;;;;;;;6.85;5.70;;;18.70;92.90;;;;;;5034495;28;20099;-79
2021/07/15 05:18:16;;;;;;;7.55;5.97;;;18.70;92.90;;;;;;5034573;28;20146;-78
2021/07/15 05:20:42;;;;;;;8.70;5.57;;;18.70;92.90;;;;;;5049363;28;20037;-78
2021/07/15 05:23:08;;;;;;;8.73;6.20;;;18.80;93.00;;;;;;5034682;28;20033;-78
2021/07/15 05:25:34;;;;;;;6.20;5.55;;;18.80;93.00;;;;;;5034294;28;20120;-77
2021/07/15 05:28:00;;;;;;;6.53;5.60;;;18.80;93.00;;;;;;5034514;28;20504;-77
2021/07/15 05:30:26;;;;;;;8.13;5.93;;;18.80;93.00;;;;;;5052390;28;20036;-77
2021/07/15 05:32:51;;;;;;;6.93;5.45;;;18.70;92.90;;;;;;5043869;28;20060;-77
2021/07/15 05:35:17;;;;;;;8.20;6.00;;;18.80;93.00;;;;;;5054409;28;20033;-78
2021/07/15 05:37:43;;;;;;;6.97;5.72;;;18.70;93.00;;;;;;5054123;28;20036;-76
2021/07/15 05:40:09;;;;;;;7.60;6.30;;;18.80;93.00;;;;;;5054443;28;20508;-77
2021/07/15 05:42:35;;;;;;;7.97;6.32;;;18.70;93.00;;;;;;5057638;28;20024;-77
2021/07/15 05:45:01;;;;;;;8.48;6.57;;;18.70;93.00;;;;;;5059524;28;20454;-78
2021/07/15 05:47:27;;;;;;;9.77;7.70;;;18.70;93.00;;;;;;5058333;28;20091;-77
2021/07/15 05:49:52;;;;;;;10.70;7.85;;;18.70;93.00;;;;;;5076989;28;20074;-78
2021/07/15 05:52:18;;;;;;;10.48;8.20;;;18.70;93.00;;;;;;5058724;28;20025;-81
2021/07/15 05:54:43;;;;;;;11.27;7.90;;;18.70;93.00;;;;;;5057999;28;20029;-76
2021/07/15 05:57:09;;;;;;;12.20;8.27;;;18.70;93.00;;;;;;5058141;28;20103;-78
2021/07/15 05:59:35;;;;;;;10.38;8.10;;;18.70;93.10;;;;;;5057679;28;20480;-78
2021/07/15 06:02:55;;;;;;;10.45;8.18;;;18.70;93.00;;;;;;5057435;28;20021;-78
2021/07/15 06:05:21;;;;;;;12.38;8.38;;;18.70;93.10;;;;;;5057494;28;20032;-79
2021/07/15 06:07:47;;;;;;;13.27;8.77;;;18.70;93.10;;;;;;5057745;28;20484;-79
2021/07/15 06:10:12;;;;;;;14.38;8.52;;;18.70;93.10;;;;;;5057568;28;20040;-79
2021/07/15 06:12:38;;;;;;;10.07;7.60;;;18.70;93.10;;;;;;5057726;28;20392;-79
2021/07/15 06:15:05;;;;;;;11.70;8.55;;;18.70;93.10;;;;;;5057689;28;20067;-79
2021/07/15 06:17:31;;;;;;;13.65;8.52;;;18.70;93.10;;;;;;5057368;28;20032;-79
2021/07/15 06:19:57;;;;;;;11.02;8.00;;;18.70;93.10;;;;;;5057944;28;20025;-78
2021/07/15 06:22:23;;;;;;;9.88;7.88;;;18.70;93.10;;;;;;5075473;28;20363;-78
2021/07/15 06:24:48;;;;;;;10.23;8.30;;;18.70;93.10;;;;;;5057425;28;20490;-78
2021/07/15 06:27:14;;;;;;;11.45;8.10;;;18.70;93.10;;;;;;5057136;28;20132;-78
2021/07/15 06:29:40;;;;;;;9.75;8.05;;;18.70;93.10;;;;;;5075025;28;20040;-78
2021/07/15 06:32:06;;;;;;;11.55;7.82;;;18.70;93.10;;;;;;5056718;28;20124;-80
2021/07/15 06:34:31;;;;;;;9.73;7.93;;;18.70;93.10;;;;;;5057100;28;20579;-78
2021/07/15 06:36:57;;;;;;;8.23;7.35;;;18.70;93.10;;;;;;5056875;28;20346;-78
2021/07/15 06:39:23;;;;;;;8.65;6.78;;;18.80;93.10;;;;;;5056941;28;20027;-78
2021/07/15 06:41:48;;;;;;;7.65;6.82;;;18.80;93.10;;;;;;5056854;28;20473;-78
2021/07/15 06:44:14;;;;;;;8.70;6.55;;;18.80;93.10;;;;;;5057072;28;20149;-78
2021/07/15 06:46:41;;;;;;;7.03;6.00;;;18.90;93.30;;;;;;5074778;28;20080;-78
2021/07/15 06:49:06;;;;;;;6.00;5.40;;;18.90;93.00;;;;;;5056953;28;20031;-78
2021/07/15 06:51:35;;;;;;;5.10;4.60;;;18.90;93.00;;;;;;5056745;28;20396;-78
2021/07/15 06:54:01;;;;;;;6.18;4.82;;;18.90;93.00;;;;;;5055779;28;20094;-78
2021/07/15 06:56:27;;;;;;;4.32;3.92;;;18.90;92.90;;;;;;5074522;28;20032;-78
2021/07/15 06:58:54;;;;;;;3.88;3.47;;;19.00;92.90;;;;;;5074505;28;20055;-78
2021/07/15 07:01:19;;;;;;;3.55;3.25;;;19.00;92.90;;;;;;5074422;28;20507;-78
2021/07/15 07:03:45;;;;;;;4.25;3.53;;;19.00;92.80;;;;;;5056538;28;20024;-78
2021/07/15 07:06:11;;;;;;;3.88;3.53;;;19.00;92.80;;;;;;5074348;28;20107;-77
2021/07/15 07:08:36;;;;;;;3.70;3.40;;;19.00;92.80;;;;;;5056414;28;20090;-77
2021/07/15 07:11:02;;;;;;;3.95;3.50;;;18.90;92.80;;;;;;5056437;28;20039;-77
2021/07/15 07:13:28;;;;;;;4.03;3.63;;;18.90;92.80;;;;;;5056344;28;20025;-78
2021/07/15 07:15:53;;;;;;;4.18;3.40;;;18.90;92.80;;;;;;5056194;28;20028;-78
2021/07/15 07:18:20;;;;;;;4.35;3.67;;;18.90;92.80;;;;;;5056072;28;20025;-78
2021/07/15 07:20:46;;;;;;;3.47;3.17;;;18.90;92.80;;;;;;5073853;28;20028;-78
2021/07/15 07:23:13;;;;;;;3.83;3.30;;;18.90;92.80;;;;;;5056086;28;20423;-78
2021/07/15 07:25:40;;;;;;;5.57;4.47;;;18.90;92.80;;;;;;5072750;28;20021;-78
2021/07/15 07:28:06;;;;;;;5.82;4.00;;;18.90;92.70;;;;;;5056016;28;20024;-78
2021/07/15 07:30:32;;;;;;;4.30;3.63;;;18.90;92.70;;;;;;5056044;28;20067;-79
2021/07/15 07:32:57;;;;;;;4.38;3.90;;;18.90;92.70;;;;;;5055812;28;20040;-79
2021/07/15 07:35:23;;;;;;;5.43;4.43;;;18.90;92.70;;;;;;5056113;28;20480;-79
2021/07/15 07:37:49;;;;;;;5.15;4.45;;;18.90;92.70;;;;;;5055815;28;20066;-79
2021/07/15 07:40:16;;;;;;;5.80;4.30;;;18.90;92.70;;;;;;5055806;28;20032;-79
2021/07/15 07:42:43;;;;;;;6.63;4.93;;;18.90;92.80;;;;;;5052952;28;20040;-79
2021/07/15 07:45:10;;;;;;;5.65;4.85;;;18.90;92.80;;;;;;5055681;28;20392;-79
2021/07/15 07:47:36;;;;;;;7.60;6.32;;;18.90;92.70;;;;;;5055633;28;20119;-79
2021/07/15 07:50:04;;;;;;;8.25;6.40;;;18.90;92.70;;;;;;5055561;28;20080;-79
2021/07/15 07:52:31;;;;;;;7.05;5.32;;;18.90;92.60;;;;;;5055600;28;20036;-79
2021/07/15 07:54:57;;;;;;;9.80;5.72;;;18.90;92.70;;;;;;5073435;28;20523;-79
2021/07/15 07:57:22;;;;;;;7.90;5.40;;;18.80;92.70;;;;;;5055526;28;20112;-79
2021/07/15 07:59:48;;;;;;;6.20;4.70;;;18.80;92.70;;;;;;5055254;28;20031;-77
2021/07/15 08:02:14;;;;;;;5.22;4.60;;;18.80;92.70;;;;;;5055161;28;20021;-78
2021/07/15 08:04:39;;;;;;;6.28;4.50;;;18.90;92.70;;;;;;5073161;28;20506;-78
2021/07/15 08:07:09;;;;;;;4.60;4.20;;;18.90;92.70;;;;;;5055244;28;20093;-78
2021/07/15 08:09:42;;;;;;;4.50;4.10;;;19.10;92.70;;;;;;5055214;28;20475;-78
2021/07/15 08:12:08;;;;;;;;;;;19.10;92.50;;;;;;5055717;28;20119;-78
2021/07/15 08:14:35;;;;;;;4.32;3.70;;;19.20;92.50;;;;;;5055461;28;20332;-79
2021/07/15 08:17:01;;;;;;;5.47;3.60;;;19.20;92.40;;;;;;5055139;28;20028;-79
2021/07/15 08:19:27;;;;;;;5.13;4.00;;;19.20;92.40;;;;;;5055182;28;20039;-80
2021/07/15 08:21:54;;;;;;;3.78;3.42;;;19.10;92.30;;;;;;5055445;28;20021;-79
2021/07/15 08:24:23;;;;;;;3.72;3.42;;;19.10;92.40;;;;;;5055068;28;20506;-79
2021/07/15 08:26:49;;;;;;;3.95;3.40;;;19.20;92.40;;;;;;5055179;28;20035;-80
2021/07/15 08:29:14;;;;;;;3.38;3.08;;;19.20;92.40;;;;;;5054566;28;20036;-80
2021/07/15 08:31:42;;;;;;;4.18;3.00;;;19.30;92.40;;;;;;5054987;28;20480;-80
2021/07/15 08:34:07;;;;;;;4.60;3.20;;;19.30;92.30;;;;;;5054878;28;20036;-80
2021/07/15 08:36:33;;;;;;;3.60;3.10;;;19.30;92.30;;;;;;5072801;28;20400;-80
2021/07/15 08:38:59;;;;;;;4.75;3.95;;;19.30;92.20;;;;;;5055020;28;20029;-80
2021/07/15 08:41:25;;;;;;;5.97;4.43;;;19.30;92.20;;;;;;5071705;28;20123;-80
2021/07/15 08:43:52;;;;;;;6.75;4.30;;;19.20;92.10;;;;;;5071669;28;20086;-79
2021/07/15 08:46:20;;;;;;;7.13;4.90;;;19.10;92.20;;;;;;5072765;28;20031;-78
2021/07/15 08:48:46;;;;;;;6.65;4.78;;;19.00;92.30;;;;;;5073113;28;20037;-79
2021/07/15 08:51:13;;;;;;;7.78;4.88;;;18.90;92.50;;;;;;5054955;28;20044;-78
2021/07/15 08:53:44;;;;;;;8.48;5.15;;;18.90;92.40;;;;;;5054877;28;20055;-78
2021/07/15 08:58:59;;;;;;;8.13;5.20;;;18.80;92.50;;;;;;5072881;28;20031;-79
2021/07/15 09:01:27;;;;;;;7.05;5.00;;;18.80;92.60;;;;;;5071454;28;20029;-78
2021/07/15 09:03:54;;;;;;;7.03;4.82;;;18.70;92.60;;;;;;5071236;28;20446;-78
2021/07/15 09:06:19;;;;;;;14.73;5.95;;;18.70;92.60;;;;;;5071406;28;20024;-78
2021/07/15 09:08:47;;;;;;;12.07;5.95;;;18.70;92.60;;;;;;5072626;28;20040;-78
2021/07/15 09:11:12;;;;;;;10.50;5.85;;;18.70;92.60;;;;;;5071307;28;20103;-79
2021/07/15 09:13:41;;;;;;;7.65;5.15;;;18.70;92.60;;;;;;5072909;28;20037;-79
2021/07/15 09:16:14;;;;;;;9.13;5.13;;;18.70;92.60;;;;;;5073655;28;20083;-78
2021/07/15 09:19:04;;;;;;;8.88;5.13;;;18.70;92.70;;;;;;5075511;28;20098;-78
2021/07/15 09:21:34;;;;;;;8.40;5.15;;;18.70;92.70;;;;;;5074990;28;20029;-78
2021/07/15 09:24:02;;;;;;;9.02;5.70;;;18.60;92.60;;;;;;5058253;28;20060;-78
2021/07/15 09:26:30;;;;;;;9.90;5.70;;;18.60;92.70;;;;;;5076657;28;20504;-79
2021/07/15 09:29:12;;;;;;;8.68;5.10;;;18.60;92.70;;;;;;5058292;28;20020;-78
2021/07/15 09:31:59;;;;;;;7.65;5.03;;;18.60;92.70;;;;;;5058251;28;20038;-79
2021/07/15 09:34:27;;;;;;;8.45;5.45;;;18.60;92.70;;;;;;5058065;28;20492;-79
2021/07/15 09:36:53;;;;;;;7.57;5.03;;;18.50;92.70;;;;;;5076085;28;20036;-79
2021/07/15 09:39:24;;;;;;;6.78;4.95;;;18.50;92.70;;;;;;5058388;28;20364;-79
2021/07/15 09:42:14;;;;;;;9.13;5.32;;;18.60;92.80;;;;;;5058012;28;20036;-79
2021/07/15 09:48:12;;;;;;;6.45;5.40;;;18.60;92.70;;;;;;5076126;28;20055;-79
2021/07/15 09:50:39;;;;;;;7.82;5.10;;;18.60;92.70;;;;;;5058303;28;20029;-79
2021/07/15 09:53:34;;;;;;;7.40;5.40;;;18.60;92.70;;;;;;5057788;28;20365;-79
2021/07/15 09:56:02;;;;;;;6.90;5.20;;;18.70;92.70;;;;;;5061917;28;20040;-79
2021/07/15 09:58:38;;;;;;;8.13;5.90;;;18.70;92.70;;;;;;5075073;28;20039;-79
2021/07/15 10:01:07;;;;;;;7.60;5.97;;;18.70;92.70;;;;;;5057606;28;20028;-79
2021/07/15 10:03:41;;;;;;;8.63;6.45;;;18.70;92.70;;;;;;5057848;28;20032;-79
2021/07/15 10:06:11;;;;;;;6.72;4.90;;;18.70;92.70;;;;;;5074202;28;20025;-79
2021/07/15 10:08:39;;;;;;;7.03;5.18;;;18.80;92.70;;;;;;5057589;28;20476;-79
2021/07/15 10:11:20;;;;;;;6.75;4.72;;;18.80;92.70;;;;;;5057494;28;20025;-78
2021/07/15 10:13:58;;;;;;;6.55;4.80;;;18.90;92.70;;;;;;5057551;28;20082;-79
2021/07/15 10:16:27;;;;;;;8.25;5.20;;;18.90;92.60;;;;;;5057364;28;20024;-79
2021/07/15 10:18:53;;;;;;;6.22;4.38;;;18.90;92.60;;;;;;5075375;28;20020;-79
2021/07/15 10:21:25;;;;;;;6.43;4.20;;;19.00;92.60;;;;;;5057458;28;20023;-80
2021/07/15 10:23:51;;;;;;;6.53;4.85;;;18.90;92.50;;;;;;5075260;28;20369;-80
2021/07/15 10:26:17;;;;;;;5.22;3.72;;;18.90;92.50;;;;;;5057265;28;20027;-80
2021/07/15 10:28:45;;;;;;;5.20;4.05;;;19.00;92.50;;;;;;5055912;28;20114;-80
2021/07/15 10:31:12;;;;;;;5.03;4.50;;;19.00;92.50;;;;;;5057022;28;20048;-79
2021/07/15 10:33:38;;;;;;;4.63;3.72;;;19.00;92.80;;;;;;5057106;28;20045;-80
2021/07/15 10:36:05;;;;;;;4.40;4.00;;;19.00;92.40;;;;;;5057106;28;20034;-80
2021/07/15 10:38:39;;;;;;;6.05;4.25;;;19.00;92.40;;;;;;5057040;28;20029;-80
2021/07/15 10:41:07;;;;;;;;;;;19.00;92.40;;;;;;5057500;28;20064;-80
2021/07/15 10:43:34;;;;;;;5.10;4.20;;;19.00;92.40;;;;;;5057254;28;20379;-79
2021/07/15 10:46:04;;;;;;;7.53;4.40;;;18.90;92.40;;;;;;5056723;28;20039;-79
2021/07/15 10:48:48;;;;;;;6.10;4.90;;;18.90;92.30;;;;;;5073472;28;20028;-79
2021/07/15 10:51:14;;;;;;;5.15;4.18;;;18.90;92.40;;;;;;5056890;28;20551;-79
2021/07/15 10:53:41;;;;;;;6.10;4.22;;;18.90;92.40;;;;;;5056851;28;20131;-80
2021/07/15 10:56:08;;;;;;;4.95;3.80;;;18.90;92.40;;;;;;5056549;28;20122;-80
2021/07/15 10:58:54;;;;;;;4.43;4.03;;;18.90;92.70;;;;;;5056887;28;20021;-79
2021/07/15 11:01:40;;;;;;;4.28;3.78;;;19.00;92.30;;;;;;5056545;28;20111;-80
2021/07/15 11:04:16;;;;;;;4.47;3.58;;;19.00;92.30;;;;;;5056648;28;20024;-80
2021/07/15 11:06:53;;;;;;;3.85;3.50;;;19.00;92.60;;;;;;5056456;28;20052;-80
2021/07/15 11:09:30;;;;;;;3.40;3.08;;;19.00;92.20;;;;;;5056503;28;20187;-81
2021/07/15 11:12:01;;;;;;;3.17;2.88;;;19.10;92.30;;;;;;5056378;28;20480;-81
2021/07/15 11:14:42;;;;;;;4.72;3.30;;;19.10;92.20;;;;;;5056360;28;20484;-80
2021/07/15 11:17:33;;;;;;;4.25;3.03;;;19.10;92.20;;;;;;5056167;28;20094;-80
2021/07/15 11:20:00;;;;;;;4.38;3.08;;;19.10;92.20;;;;;;5056129;28;20012;-80
2021/07/15 11:22:33;;;;;;;3.33;3.00;;;19.10;92.20;;;;;;5074083;28;20025;-81
2021/07/15 11:25:08;;;;;;;3.58;2.95;;;19.10;92.10;;;;;;5056399;28;20115;-80
2021/07/15 11:27:39;;;;;;;3.80;3.20;;;19.20;92.20;;;;;;5056364;28;20043;-80
2021/07/15 11:30:12;;;;;;;3.60;3.30;;;19.20;92.10;;;;;;5073910;28;20480;-79
2021/07/15 11:32:38;;;;;;;4.80;3.80;;;19.20;92.00;;;;;;5073778;28;20094;-79
2021/07/15 11:35:22;;;;;;;4.88;3.55;;;19.30;92.00;;;;;;5055916;28;20020;-79
2021/07/15 11:38:07;;;;;;;4.97;3.60;;;19.30;91.90;;;;;;5056038;28;20451;-80
2021/07/15 11:40:35;;;;;;;4.30;3.80;;;19.30;91.90;;;;;;5055579;28;20030;-80
2021/07/15 11:43:18;;;;;;;5.55;4.05;;;19.30;92.00;;;;;;5055766;28;20033;-81
2021/07/15 11:46:04;;;;;;;4.15;3.70;;;19.30;91.80;;;;;;5055688;28;20078;-80
2021/07/15 11:48:51;;;;;;;5.88;3.97;;;19.30;91.80;;;;;;5055844;28;20040;-80
2021/07/15 11:51:36;;;;;;;5.63;3.85;;;19.30;91.80;;;;;;5055576;28;20132;-80
2021/07/15 11:54:20;;;;;;;4.78;3.67;;;19.30;91.80;;;;;;5073583;28;20036;-80
2021/07/15 11:57:12;;;;;;;3.60;3.25;;;19.30;91.80;;;;;;5055503;28;20068;-81
2021/07/15 11:59:39;;;;;;;5.35;3.72;;;19.30;91.80;;;;;;5055498;28;20037;-79
2021/07/15 12:02:21;;;;;;;4.72;3.50;;;19.30;91.80;;;;;;5055365;28;20021;-79
2021/07/15 12:05:11;;;;;;;3.97;3.55;;;19.40;91.80;;;;;;5055665;28;20028;-79
2021/07/15 12:08:08;;;;;;;4.47;3.65;;;19.50;91.60;;;;;;5055228;28;20035;-80
2021/07/15 12:10:36;;;;;;;4.68;3.95;;;19.50;91.60;;;;;;5047384;28;20127;-80
2021/07/15 12:13:05;;;;;;;6.43;4.40;;;19.50;91.50;;;;;;5055396;28;20017;-80
2021/07/15 12:15:32;;;;;;;5.88;4.93;;;19.50;91.40;;;;;;5073351;28;20431;-80
2021/07/15 12:18:00;;;;;;;5.63;4.60;;;19.40;91.40;;;;;;5055130;28;20024;-80
2021/07/15 12:20:39;;;;;;;6.25;4.60;;;19.40;91.50;;;;;;5073165;28;20028;-80
2021/07/15 12:23:09;;;;;;;6.30;4.30;;;19.40;91.50;;;;;;5055508;28;20024;-80
2021/07/15 12:25:36;;;;;;;4.47;3.90;;;19.40;91.50;;;;;;5055169;28;20016;-80
2021/07/15 12:28:05;;;;;;;6.82;4.82;;;19.40;91.50;;;;;;5055240;28;20029;-80
2021/07/15 12:30:40;;;;;;;6.32;4.75;;;19.50;91.50;;;;;;5055148;28;20392;-79
2021/07/15 12:33:05;;;;;;;8.93;5.40;;;19.50;91.40;;;;;;5072875;28;20052;-79
2021/07/15 12:35:34;;;;;;;6.80;5.25;;;19.40;91.40;;;;;;5072813;28;20025;-81
2021/07/15 12:38:16;;;;;;;6.20;4.70;;;19.40;91.40;;;;;;5055094;28;20033;-80
2021/07/15 12:40:42;;;;;;;6.03;4.63;;;19.50;91.40;;;;;;5054981;28;20115;-80
2021/07/15 12:43:13;;;;;;;6.22;4.93;;;19.50;91.50;;;;;;5055000;28;20032;-79
2021/07/15 12:45:39;;;;;;;7.13;5.22;;;19.50;91.40;;;;;;5055038;28;20021;-80
2021/07/15 12:48:08;;;;;;;6.43;4.75;;;19.50;91.40;;;;;;5054938;28;20451;-80
2021/07/15 12:50:45;;;;;;;5.40;4.53;;;19.50;91.40;;;;;;5055708;28;20024;-81
2021/07/15 12:53:15;;;;;;;6.15;4.60;;;19.50;91.40;;;;;;5060121;28;20026;-80
2021/07/15 12:55:42;;;;;;;6.30;4.25;;;19.50;91.30;;;;;;5059263;28;20035;-80
2021/07/15 12:58:08;;;;;;;8.02;4.60;;;19.60;91.30;;;;;;5058793;28;20028;-80
2021/07/15 13:00:35;;;;;;;6.40;4.40;;;19.60;91.20;;;;;;5058790;28;20083;-81
2021/07/15 13:06:31;;;;;;;7.10;4.30;;;19.60;91.20;;;;;;5077047;28;20400;-81
2021/07/15 13:09:09;;;;;;;6.68;4.50;;;19.50;91.10;;;;;;5058667;28;20024;-81
2021/07/15 13:14:20;;;;;;;5.15;4.25;;;19.50;91.20;;;;;;5076965;28;20171;-81
2021/07/15 13:16:52;;;;;;;5.18;4.30;;;19.50;91.20;;;;;;5058193;28;20127;-81
2021/07/15 13:19:21;;;;;;;5.40;4.63;;;19.50;91.10;;;;;;5058247;28;20028;-81